createdAt,value
2024-01-26T00:01:28.657Z,9.10
2024-01-26T00:04:34.734Z,9.40
2024-01-26T00:07:40.709Z,9.40
2024-01-26T00:10:46.482Z,9.10
2024-01-26T00:13:52.149Z,9.30
2024-01-26T00:16:57.823Z,8.30
2024-01-26T00:20:03.492Z,9.90
2024-01-26T00:23:09.176Z,8.60
2024-01-26T00:26:16.117Z,9.60
2024-01-26T00:29:22.320Z,11.50
2024-01-26T00:32:27.986Z,7.80
2024-01-26T00:35:33.842Z,10.40
2024-01-26T00:38:39.478Z,11.30
2024-01-26T00:41:45.100Z,11.70
2024-01-26T00:44:50.707Z,11.70
2024-01-26T00:47:56.409Z,8.50
2024-01-26T00:51:02.842Z,10.40
2024-01-26T00:54:08.599Z,8.90
2024-01-26T00:57:15.323Z,10.10
2024-01-26T01:00:21.585Z,10.10
2024-01-26T01:03:27.491Z,8.60
2024-01-26T01:06:33.307Z,10.00
2024-01-26T01:09:41.558Z,9.00
2024-01-26T01:12:47.877Z,10.30
2024-01-26T01:15:53.625Z,10.10
2024-01-26T01:18:59.392Z,9.00
2024-01-26T01:22:05.365Z,9.60
2024-01-26T01:25:13.336Z,8.20
2024-01-26T01:28:19.052Z,8.70
2024-01-26T01:31:24.716Z,9.60
2024-01-26T01:34:30.701Z,9.00
2024-01-26T01:37:36.457Z,6.70
2024-01-26T01:40:42.221Z,9.80
2024-01-26T01:43:57.181Z,8.70
2024-01-26T01:47:02.821Z,11.20
2024-01-26T01:50:10.001Z,11.50
2024-01-26T01:53:17.174Z,11.00
2024-01-26T01:56:25.630Z,11.10
2024-01-26T01:59:32.401Z,11.20
2024-01-26T02:02:38.499Z,12.80
2024-01-26T02:05:45.520Z,10.50
2024-01-26T02:08:51.232Z,10.60
2024-01-26T02:11:57.499Z,10.70
2024-01-26T02:18:08.349Z,10.00
2024-01-26T02:21:14.031Z,9.90
2024-01-26T02:24:19.991Z,11.10
2024-01-26T02:27:25.986Z,12.20
2024-01-26T02:30:34.984Z,8.30
2024-01-26T02:33:40.798Z,10.90
2024-01-26T02:36:46.588Z,9.20
2024-01-26T02:39:52.412Z,10.90
2024-01-26T02:42:58.022Z,10.30
2024-01-26T02:46:09.995Z,11.40
2024-01-26T02:49:16.077Z,10.50
2024-01-26T02:52:22.277Z,12.90
2024-01-26T02:55:27.914Z,10.20
2024-01-26T02:58:33.586Z,11.80
2024-01-26T03:01:39.252Z,10.50
2024-01-26T03:04:44.850Z,8.90
2024-01-26T03:07:50.520Z,10.40
2024-01-26T03:10:56.132Z,9.60
2024-01-26T03:14:01.781Z,10.70
2024-01-26T03:17:07.781Z,10.70
2024-01-26T03:20:15.166Z,9.90
2024-01-26T03:23:20.900Z,9.70
2024-01-26T03:26:26.566Z,11.20
2024-01-26T03:29:32.232Z,9.50
2024-01-26T03:32:38.086Z,10.10
2024-01-26T03:35:43.809Z,8.80
2024-01-26T03:38:49.535Z,8.60
2024-01-26T03:41:55.614Z,9.60
2024-01-26T03:45:02.054Z,9.40
2024-01-26T03:51:13.456Z,11.70
2024-01-26T03:57:24.127Z,9.10
2024-01-26T04:00:29.808Z,10.50
2024-01-26T04:03:35.622Z,9.30
2024-01-26T04:06:43.813Z,10.00
2024-01-26T04:09:49.485Z,11.60
2024-01-26T04:12:55.089Z,10.10
2024-01-26T04:16:00.770Z,7.70
2024-01-26T04:19:06.563Z,10.90
2024-01-26T04:22:12.480Z,8.80
2024-01-26T04:25:18.296Z,9.10
2024-01-26T04:28:23.964Z,9.90
2024-01-26T04:31:29.847Z,8.30
2024-01-26T04:34:39.101Z,9.70
2024-01-26T04:37:45.173Z,9.40
2024-01-26T04:40:50.849Z,8.70
2024-01-26T04:43:56.735Z,10.80
2024-01-26T04:47:02.390Z,9.70
2024-01-26T04:50:09.090Z,9.80
2024-01-26T04:53:16.629Z,11.10
2024-01-26T04:56:22.997Z,9.50
2024-01-26T05:02:33.134Z,11.00
2024-01-26T05:05:38.910Z,10.40
2024-01-26T05:08:45.257Z,12.70
2024-01-26T05:11:51.254Z,11.40
2024-01-26T05:14:56.948Z,11.50
2024-01-26T05:18:02.795Z,10.80
2024-01-26T05:21:09.456Z,10.30
2024-01-26T05:24:15.241Z,11.50
2024-01-26T05:27:20.913Z,14.20
2024-01-26T05:30:27.652Z,11.60
2024-01-26T05:33:33.619Z,12.30
2024-01-26T05:36:44.300Z,12.70
2024-01-26T05:39:50.070Z,13.10
2024-01-26T05:42:55.691Z,13.70
2024-01-26T05:46:01.338Z,13.80
2024-01-26T05:49:09.354Z,13.60
2024-01-26T05:52:15.836Z,13.60
2024-01-26T05:55:21.621Z,16.60
2024-01-26T05:58:27.466Z,15.40
2024-01-26T06:01:33.169Z,13.90
2024-01-26T06:04:38.803Z,16.60
2024-01-26T06:07:44.476Z,18.20
2024-01-26T06:10:50.197Z,26.60
2024-01-26T06:13:55.810Z,20.20
2024-01-26T06:17:01.481Z,20.00
2024-01-26T06:20:09.178Z,22.90
2024-01-26T06:23:14.896Z,21.40
2024-01-26T06:26:21.400Z,26.70
2024-01-26T06:29:27.156Z,27.00
2024-01-26T06:32:32.947Z,35.40
2024-01-26T06:35:39.454Z,22.20
2024-01-26T06:38:45.297Z,22.30
2024-01-26T06:41:51.929Z,21.90
2024-01-26T06:44:57.893Z,21.00
2024-01-26T06:48:03.828Z,22.90
2024-01-26T06:51:10.143Z,19.80
2024-01-26T06:54:15.962Z,24.00
2024-01-26T06:57:22.276Z,23.10
2024-01-26T07:00:28.824Z,19.10
2024-01-26T07:03:34.620Z,21.40
2024-01-26T07:06:40.503Z,17.30
2024-01-26T07:09:46.366Z,18.80
2024-01-26T07:12:52.088Z,20.10
2024-01-26T07:15:57.735Z,17.90
2024-01-26T07:19:03.471Z,19.60
2024-01-26T07:22:09.328Z,17.10
2024-01-26T07:25:20.300Z,16.70
2024-01-26T07:28:26.084Z,17.70
2024-01-26T07:31:31.753Z,15.30
2024-01-26T07:34:37.622Z,13.70
2024-01-26T07:37:43.409Z,15.30
2024-01-26T07:40:49.012Z,15.50
2024-01-26T07:43:54.660Z,15.10
2024-01-26T07:47:00.298Z,15.30
2024-01-26T07:50:07.164Z,10.50
2024-01-26T07:53:13.799Z,17.60
2024-01-26T07:56:19.555Z,16.20
2024-01-26T07:59:25.320Z,21.30
2024-01-26T08:02:31.981Z,18.20
2024-01-26T08:05:38.064Z,17.20
2024-01-26T08:08:44.092Z,18.20
2024-01-26T08:11:50.840Z,13.80
2024-01-26T08:15:01.643Z,13.80
2024-01-26T08:18:09.198Z,19.50
2024-01-26T08:21:15.059Z,15.20
2024-01-26T08:24:21.280Z,19.20
2024-01-26T08:27:27.312Z,15.20
2024-01-26T08:30:33.254Z,17.80
2024-01-26T08:33:39.239Z,17.90
2024-01-26T08:36:45.116Z,18.00
2024-01-26T08:39:51.080Z,16.10
2024-01-26T08:42:56.735Z,19.70
2024-01-26T08:46:02.388Z,19.30
2024-01-26T08:49:08.821Z,16.60
2024-01-26T08:52:14.606Z,18.60
2024-01-26T08:55:20.538Z,16.60
2024-01-26T08:58:26.419Z,16.40
2024-01-26T09:01:32.072Z,18.40
2024-01-26T09:04:38.285Z,18.30
2024-01-26T09:10:48.455Z,18.40
2024-01-26T09:13:54.144Z,16.60
2024-01-26T09:17:02.057Z,16.40
2024-01-26T09:20:10.682Z,14.60
2024-01-26T09:23:16.663Z,17.20
2024-01-26T09:26:22.852Z,16.30
2024-01-26T09:32:35.488Z,17.50
2024-01-26T09:35:41.442Z,18.40
2024-01-26T09:38:47.171Z,21.30
2024-01-26T09:41:52.993Z,19.80
2024-01-26T09:44:59.108Z,18.30
2024-01-26T09:48:08.369Z,16.50
2024-01-26T09:51:14.573Z,20.00
2024-01-26T09:54:22.822Z,19.00
2024-01-26T09:57:29.904Z,18.20
2024-01-26T10:00:35.767Z,17.90
2024-01-26T10:03:41.577Z,18.20
2024-01-26T10:06:49.700Z,18.00
2024-01-26T10:09:55.742Z,15.80
2024-01-26T10:13:01.866Z,14.20
2024-01-26T10:16:13.771Z,14.00
2024-01-26T10:19:27.196Z,14.10
2024-01-26T10:22:33.407Z,13.50
2024-01-26T10:25:41.423Z,16.20
2024-01-26T10:28:49.758Z,13.20
2024-01-26T10:31:55.716Z,13.20
2024-01-26T10:35:04.066Z,14.20
2024-01-26T10:38:12.441Z,12.30
2024-01-26T10:41:22.888Z,14.40
2024-01-26T10:44:29.159Z,13.10
2024-01-26T10:47:36.751Z,15.00
2024-01-26T10:50:43.499Z,13.70
2024-01-26T10:53:50.197Z,12.30
2024-01-26T10:56:56.423Z,13.90
2024-01-26T11:03:07.801Z,15.00
2024-01-26T11:06:15.216Z,14.50
2024-01-26T11:09:22.331Z,12.30
2024-01-26T11:12:31.283Z,15.30
2024-01-26T11:15:38.662Z,13.70
2024-01-26T11:18:44.381Z,13.80
2024-01-26T11:21:50.821Z,14.10
2024-01-26T11:31:08.126Z,15.60
2024-01-26T11:34:23.288Z,15.40
2024-01-26T11:37:31.007Z,15.00
2024-01-26T11:40:37.477Z,15.00
2024-01-26T11:43:47.646Z,14.40
2024-01-26T11:46:54.055Z,14.10
2024-01-26T11:50:00.071Z,12.30
2024-01-26T11:53:06.740Z,13.60
2024-01-26T11:56:13.077Z,12.20
2024-01-26T11:59:19.008Z,13.60
2024-01-26T12:02:24.778Z,13.70
2024-01-26T12:05:31.405Z,12.00
2024-01-26T12:08:37.490Z,12.90
2024-01-26T12:11:43.890Z,13.80
2024-01-26T12:14:50.198Z,13.90
2024-01-26T12:21:01.702Z,14.30
2024-01-26T12:24:15.833Z,14.40
2024-01-26T12:27:22.360Z,14.90
2024-01-26T12:33:36.452Z,15.40
2024-01-26T12:36:42.548Z,19.10
2024-01-26T12:40:38.132Z,17.50
2024-01-26T12:43:45.114Z,17.80
2024-01-26T12:46:50.961Z,14.30
2024-01-26T12:49:56.832Z,14.80
2024-01-26T12:53:02.862Z,13.50
2024-01-26T12:56:10.057Z,12.50
2024-01-26T12:59:16.009Z,14.00
2024-01-26T13:02:21.882Z,13.00
2024-01-26T13:05:27.711Z,13.40
2024-01-26T13:08:33.408Z,14.20
2024-01-26T13:11:40.491Z,15.00
2024-01-26T13:14:48.099Z,14.30
2024-01-26T13:17:54.034Z,14.10
2024-01-26T13:21:00.261Z,16.40
2024-01-26T13:24:06.918Z,15.70
2024-01-26T13:30:25.245Z,15.00
2024-01-26T13:33:32.339Z,16.00
2024-01-26T13:36:38.096Z,15.50
2024-01-26T13:39:43.747Z,14.80
2024-01-26T13:42:50.214Z,14.00
2024-01-26T13:45:55.963Z,13.30
2024-01-26T13:49:01.878Z,14.20
2024-01-26T13:52:09.584Z,13.00
2024-01-26T13:55:16.501Z,13.90
2024-01-26T13:58:22.405Z,13.00
2024-01-26T14:01:28.271Z,15.10
2024-01-26T14:04:34.106Z,14.80
2024-01-26T14:07:40.061Z,15.10
2024-01-26T14:10:45.902Z,14.70
2024-01-26T14:13:51.782Z,13.00
2024-01-26T14:16:58.791Z,12.40
2024-01-26T14:20:04.960Z,12.80
2024-01-26T14:23:10.668Z,12.50
2024-01-26T14:26:16.333Z,15.70
2024-01-26T14:29:22.294Z,16.10
2024-01-26T14:32:28.289Z,17.60
2024-01-26T14:35:34.133Z,17.20
2024-01-26T14:38:39.886Z,16.80
2024-01-26T14:41:45.567Z,19.40
2024-01-26T14:44:51.439Z,16.80
2024-01-26T14:47:57.128Z,14.10
2024-01-26T14:51:02.902Z,18.80
2024-01-26T14:54:08.657Z,20.20
2024-01-26T14:57:14.437Z,20.10
2024-01-26T15:00:22.748Z,19.80
2024-01-26T15:03:29.941Z,17.80
2024-01-26T15:06:36.267Z,27.20
2024-01-26T15:09:41.998Z,25.10
2024-01-26T15:12:47.730Z,25.30
2024-01-26T15:15:53.933Z,22.20
2024-01-26T15:22:03.632Z,20.20
2024-01-26T15:25:10.789Z,18.50
2024-01-26T15:28:20.470Z,21.00
2024-01-26T15:31:26.272Z,18.30
2024-01-26T15:34:32.473Z,18.70
2024-01-26T15:40:43.981Z,16.70
2024-01-26T15:43:49.635Z,16.00
2024-01-26T15:46:55.366Z,16.60
2024-01-26T15:50:01.196Z,17.50
2024-01-26T15:53:07.568Z,17.50
2024-01-26T15:56:13.566Z,14.90
2024-01-26T15:59:19.189Z,17.20
2024-01-26T16:02:24.827Z,17.60
2024-01-26T16:05:30.475Z,24.20
2024-01-26T16:08:39.371Z,29.20
2024-01-26T16:11:45.093Z,17.20
2024-01-26T16:14:50.847Z,21.50
2024-01-26T16:17:56.815Z,18.70
2024-01-26T16:21:02.784Z,18.10
2024-01-26T16:24:09.825Z,22.10
2024-01-26T16:27:15.620Z,18.00
2024-01-26T16:30:21.936Z,26.00
2024-01-26T16:33:27.891Z,26.30
2024-01-26T16:36:34.717Z,21.60
2024-01-26T16:39:40.565Z,25.90
2024-01-26T16:42:46.359Z,25.40
2024-01-26T16:45:52.060Z,29.80
2024-01-26T16:48:59.830Z,34.40
2024-01-26T16:52:06.021Z,43.90
2024-01-26T16:55:12.594Z,51.90
2024-01-26T16:58:18.294Z,59.70
2024-01-26T17:01:24.392Z,124.40
2024-01-26T17:04:30.045Z,120.10
2024-01-26T17:07:36.452Z,120.10
2024-01-26T17:10:42.206Z,129.20
2024-01-26T17:13:47.842Z,131.00
2024-01-26T17:16:54.592Z,145.70
2024-01-26T17:20:00.322Z,125.80
2024-01-26T17:23:06.399Z,85.70
2024-01-26T17:26:12.045Z,45.50
2024-01-26T17:29:17.673Z,41.40
2024-01-26T17:32:23.358Z,23.80
2024-01-26T17:35:32.026Z,39.30
2024-01-26T17:38:38.681Z,54.60
2024-01-26T17:44:50.503Z,77.00
2024-01-26T17:47:56.317Z,71.20
2024-01-26T17:51:02.241Z,60.50
2024-01-26T17:54:08.551Z,69.30
2024-01-26T18:00:20.014Z,67.40
2024-01-26T18:03:25.813Z,69.50
2024-01-26T18:06:31.802Z,63.60
2024-01-26T18:09:37.591Z,62.10
2024-01-26T18:12:43.350Z,55.60
2024-01-26T18:15:49.169Z,53.50
2024-01-26T18:18:55.200Z,56.10
2024-01-26T18:22:01.114Z,50.80
2024-01-26T18:25:08.611Z,47.60
2024-01-26T18:28:14.396Z,42.90
2024-01-26T18:31:20.950Z,43.90
2024-01-26T18:34:27.031Z,55.90
2024-01-26T18:37:32.847Z,64.20
2024-01-26T18:40:38.494Z,59.90
2024-01-26T18:43:44.126Z,56.20
2024-01-26T18:46:49.919Z,54.10
2024-01-26T18:49:55.708Z,40.40
2024-01-26T18:53:01.525Z,61.10
2024-01-26T18:56:08.897Z,66.00
2024-01-26T18:59:17.685Z,68.10
2024-01-26T19:02:23.626Z,70.80
2024-01-26T19:05:29.570Z,61.90
2024-01-26T19:08:35.588Z,62.90
2024-01-26T19:11:44.669Z,65.60
2024-01-26T19:14:50.382Z,67.30
2024-01-26T19:17:56.223Z,66.70
2024-01-26T19:21:02.215Z,70.20
2024-01-26T19:24:09.127Z,65.40
2024-01-26T19:27:14.927Z,64.30
2024-01-26T19:30:21.051Z,61.20
2024-01-26T19:33:26.999Z,69.50
2024-01-26T19:36:32.855Z,69.10
2024-01-26T19:39:38.536Z,66.10
2024-01-26T19:42:44.176Z,73.40
2024-01-26T19:45:49.785Z,75.50
2024-01-26T19:48:56.038Z,69.30
2024-01-26T19:52:01.809Z,72.20
2024-01-26T19:55:09.646Z,67.80
2024-01-26T19:58:15.410Z,68.20
2024-01-26T20:01:21.246Z,72.00
2024-01-26T20:04:27.208Z,72.40
2024-01-26T20:07:33.270Z,71.00
2024-01-26T20:10:40.515Z,67.20
2024-01-26T20:13:46.586Z,69.50
2024-01-26T20:16:52.220Z,64.50
2024-01-26T20:19:59.795Z,66.90
2024-01-26T20:23:05.881Z,67.10
2024-01-26T20:26:13.204Z,69.50
2024-01-26T20:29:18.892Z,70.80
2024-01-26T20:32:27.354Z,61.60
2024-01-26T20:35:33.166Z,67.20
2024-01-26T20:38:39.102Z,68.40
2024-01-26T20:41:46.753Z,47.20
2024-01-26T20:44:52.576Z,64.60
2024-01-26T20:47:59.118Z,67.20
2024-01-26T20:51:05.034Z,77.60
2024-01-26T20:54:11.239Z,74.10
2024-01-26T20:57:18.243Z,71.10
2024-01-26T21:00:26.326Z,71.70
2024-01-26T21:03:32.466Z,69.60
2024-01-26T21:06:43.019Z,70.20
2024-01-26T21:09:48.800Z,69.00
2024-01-26T21:12:55.406Z,61.50
2024-01-26T21:16:01.088Z,33.00
2024-01-26T21:19:06.912Z,24.20
2024-01-26T21:22:12.698Z,19.50
2024-01-26T21:25:18.801Z,18.10
2024-01-26T21:28:25.461Z,22.70
2024-01-26T21:31:35.477Z,25.10
2024-01-26T21:34:41.357Z,18.00
2024-01-26T21:37:48.605Z,16.80
2024-01-26T21:40:54.558Z,15.80
2024-01-26T21:44:02.187Z,16.80
2024-01-26T21:47:08.747Z,13.20
2024-01-26T21:50:15.665Z,11.30
2024-01-26T21:53:21.582Z,11.00
2024-01-26T21:56:27.720Z,12.90
2024-01-26T21:59:33.670Z,11.90
2024-01-26T22:02:39.427Z,10.90
2024-01-26T22:05:45.474Z,11.50
2024-01-26T22:08:51.372Z,11.30
2024-01-26T22:11:57.253Z,11.60
2024-01-26T22:15:04.589Z,11.30
2024-01-26T22:18:10.793Z,13.10
2024-01-26T22:24:20.640Z,12.70
2024-01-26T22:27:26.586Z,11.60
2024-01-26T22:30:32.841Z,12.60
2024-01-26T22:36:42.966Z,11.60
2024-01-26T22:39:49.296Z,12.50
2024-01-26T22:42:54.943Z,11.00
2024-01-26T22:46:01.390Z,11.40
2024-01-26T22:49:07.371Z,13.50
2024-01-26T22:55:19.555Z,10.80
2024-01-26T22:58:25.812Z,11.30
2024-01-26T23:01:31.987Z,11.10
2024-01-26T23:07:41.635Z,10.60
2024-01-26T23:10:47.275Z,10.60
2024-01-26T23:13:53.385Z,9.00
2024-01-26T23:16:58.993Z,10.90
2024-01-26T23:20:06.284Z,10.70
2024-01-26T23:23:11.939Z,11.60
2024-01-26T23:26:17.680Z,10.80
2024-01-26T23:29:24.639Z,9.70
2024-01-26T23:32:30.829Z,10.20
2024-01-26T23:35:37.015Z,10.50
2024-01-26T23:38:43.069Z,9.30
2024-01-26T23:41:50.234Z,10.70
2024-01-26T23:44:57.313Z,11.50
2024-01-26T23:48:04.264Z,11.00
2024-01-26T23:51:10.209Z,10.60
2024-01-26T23:54:16.830Z,10.80
2024-01-26T23:57:22.566Z,10.90
